sensor_id;sensor_type;location;lat;lon;timestamp;P1;durP1;ratioP1;P2;durP2;ratioP2
8490;SDS011;4282;49.986;7.938;2022-12-07T00:02:01;11.20;;;7.10;;
8490;SDS011;4282;49.986;7.938;2022-12-07T00:04:30;11.77;;;6.73;;
8490;SDS011;4282;49.986;7.938;2022-12-07T00:06:58;9.60;;;6.23;;
8490;SDS011;4282;49.986;7.938;2022-12-07T00:09:27;10.57;;;7.03;;
8490;SDS011;4282;49.986;7.938;2022-12-07T00:11:56;10.10;;;6.63;;
8490;SDS011;4282;49.986;7.938;2022-12-07T00:14:24;9.50;;;6.97;;
8490;SDS011;4282;49.986;7.938;2022-12-07T00:16:53;9.37;;;7.10;;
8490;SDS011;4282;49.986;7.938;2022-12-07T00:19:24;9.03;;;6.53;;
8490;SDS011;4282;49.986;7.938;2022-12-07T00:21:52;11.93;;;7.13;;
8490;SDS011;4282;49.986;7.938;2022-12-07T00:24:20;8.17;;;6.13;;
8490;SDS011;4282;49.986;7.938;2022-12-07T00:26:49;12.03;;;6.83;;
8490;SDS011;4282;49.986;7.938;2022-12-07T00:29:18;9.40;;;6.60;;
8490;SDS011;4282;49.986;7.938;2022-12-07T00:31:48;9.13;;;6.13;;
8490;SDS011;4282;49.986;7.938;2022-12-07T00:34:18;11.30;;;6.60;;
8490;SDS011;4282;49.986;7.938;2022-12-07T00:36:50;10.27;;;6.57;;
8490;SDS011;4282;49.986;7.938;2022-12-07T00:39:18;8.77;;;6.33;;
8490;SDS011;4282;49.986;7.938;2022-12-07T00:41:46;13.23;;;6.50;;
8490;SDS011;4282;49.986;7.938;2022-12-07T00:44:15;10.03;;;7.00;;
8490;SDS011;4282;49.986;7.938;2022-12-07T00:46:43;8.97;;;5.80;;
8490;SDS011;4282;49.986;7.938;2022-12-07T00:49:12;10.33;;;7.03;;
8490;SDS011;4282;49.986;7.938;2022-12-07T00:51:41;8.93;;;6.40;;
8490;SDS011;4282;49.986;7.938;2022-12-07T00:54:12;10.70;;;6.73;;
8490;SDS011;4282;49.986;7.938;2022-12-07T00:56:40;9.90;;;6.17;;
8490;SDS011;4282;49.986;7.938;2022-12-07T00:59:10;8.57;;;6.00;;
8490;SDS011;4282;49.986;7.938;2022-12-07T01:01:40;9.40;;;5.70;;
8490;SDS011;4282;49.986;7.938;2022-12-07T01:04:08;10.93;;;6.13;;
8490;SDS011;4282;49.986;7.938;2022-12-07T01:06:36;9.07;;;6.50;;
8490;SDS011;4282;49.986;7.938;2022-12-07T01:09:06;8.43;;;5.80;;
8490;SDS011;4282;49.986;7.938;2022-12-07T01:11:37;10.10;;;6.43;;
8490;SDS011;4282;49.986;7.938;2022-12-07T01:14:05;9.93;;;6.27;;
8490;SDS011;4282;49.986;7.938;2022-12-07T01:16:34;10.47;;;6.63;;
8490;SDS011;4282;49.986;7.938;2022-12-07T01:19:02;10.93;;;6.37;;
8490;SDS011;4282;49.986;7.938;2022-12-07T01:21:32;10.83;;;6.90;;
8490;SDS011;4282;49.986;7.938;2022-12-07T01:24:03;9.33;;;6.27;;
8490;SDS011;4282;49.986;7.938;2022-12-07T01:26:32;7.47;;;5.80;;
8490;SDS011;4282;49.986;7.938;2022-12-07T01:29:03;9.57;;;6.40;;
8490;SDS011;4282;49.986;7.938;2022-12-07T01:31:33;10.13;;;6.30;;
8490;SDS011;4282;49.986;7.938;2022-12-07T01:34:01;9.93;;;6.83;;
8490;SDS011;4282;49.986;7.938;2022-12-07T01:36:30;9.53;;;6.50;;
8490;SDS011;4282;49.986;7.938;2022-12-07T01:39:01;10.27;;;6.73;;
8490;SDS011;4282;49.986;7.938;2022-12-07T01:41:31;10.33;;;6.33;;
8490;SDS011;4282;49.986;7.938;2022-12-07T01:44:11;9.33;;;6.07;;
8490;SDS011;4282;49.986;7.938;2022-12-07T01:46:44;10.57;;;6.47;;
8490;SDS011;4282;49.986;7.938;2022-12-07T01:49:24;9.90;;;6.50;;
8490;SDS011;4282;49.986;7.938;2022-12-07T01:51:57;10.00;;;6.33;;
8490;SDS011;4282;49.986;7.938;2022-12-07T01:54:29;9.60;;;6.43;;
8490;SDS011;4282;49.986;7.938;2022-12-07T01:56:58;10.53;;;6.20;;
8490;SDS011;4282;49.986;7.938;2022-12-07T01:59:30;9.10;;;6.20;;
8490;SDS011;4282;49.986;7.938;2022-12-07T02:01:58;10.63;;;6.67;;
8490;SDS011;4282;49.986;7.938;2022-12-07T02:04:27;10.97;;;6.60;;
8490;SDS011;4282;49.986;7.938;2022-12-07T02:06:55;11.33;;;7.13;;
8490;SDS011;4282;49.986;7.938;2022-12-07T02:09:25;9.80;;;6.40;;
8490;SDS011;4282;49.986;7.938;2022-12-07T02:11:54;10.53;;;6.47;;
8490;SDS011;4282;49.986;7.938;2022-12-07T02:14:22;9.43;;;6.50;;
8490;SDS011;4282;49.986;7.938;2022-12-07T02:16:57;10.53;;;6.70;;
8490;SDS011;4282;49.986;7.938;2022-12-07T02:22:54;10.60;;;6.13;;
8490;SDS011;4282;49.986;7.938;2022-12-07T02:25:47;10.30;;;6.50;;
8490;SDS011;4282;49.986;7.938;2022-12-07T02:28:47;10.17;;;6.63;;
8490;SDS011;4282;49.986;7.938;2022-12-07T02:31:22;11.40;;;6.87;;
8490;SDS011;4282;49.986;7.938;2022-12-07T02:33:52;13.30;;;5.90;;
8490;SDS011;4282;49.986;7.938;2022-12-07T02:36:25;8.97;;;5.30;;
8490;SDS011;4282;49.986;7.938;2022-12-07T02:38:57;11.80;;;6.60;;
8490;SDS011;4282;49.986;7.938;2022-12-07T02:41:27;9.20;;;5.63;;
8490;SDS011;4282;49.986;7.938;2022-12-07T02:44:01;8.00;;;5.73;;
8490;SDS011;4282;49.986;7.938;2022-12-07T02:46:31;9.77;;;5.43;;
8490;SDS011;4282;49.986;7.938;2022-12-07T02:49:02;10.27;;;6.53;;
8490;SDS011;4282;49.986;7.938;2022-12-07T02:51:31;10.20;;;6.43;;
8490;SDS011;4282;49.986;7.938;2022-12-07T02:54:00;9.13;;;6.40;;
8490;SDS011;4282;49.986;7.938;2022-12-07T02:56:30;10.80;;;6.27;;
8490;SDS011;4282;49.986;7.938;2022-12-07T02:59:10;10.37;;;6.67;;
8490;SDS011;4282;49.986;7.938;2022-12-07T03:01:47;10.60;;;5.77;;
8490;SDS011;4282;49.986;7.938;2022-12-07T03:04:24;9.23;;;6.47;;
8490;SDS011;4282;49.986;7.938;2022-12-07T03:07:02;10.50;;;6.10;;
8490;SDS011;4282;49.986;7.938;2022-12-07T03:09:34;11.90;;;6.17;;
8490;SDS011;4282;49.986;7.938;2022-12-07T03:12:08;7.80;;;5.47;;
8490;SDS011;4282;49.986;7.938;2022-12-07T03:14:41;8.20;;;5.53;;
8490;SDS011;4282;49.986;7.938;2022-12-07T03:17:13;7.07;;;5.33;;
8490;SDS011;4282;49.986;7.938;2022-12-07T03:19:44;7.77;;;5.77;;
8490;SDS011;4282;49.986;7.938;2022-12-07T03:22:13;8.03;;;5.57;;
8490;SDS011;4282;49.986;7.938;2022-12-07T03:24:43;7.80;;;5.13;;
8490;SDS011;4282;49.986;7.938;2022-12-07T03:27:14;8.27;;;5.67;;
8490;SDS011;4282;49.986;7.938;2022-12-07T03:29:48;12.13;;;6.37;;
8490;SDS011;4282;49.986;7.938;2022-12-07T03:32:19;7.67;;;5.93;;
8490;SDS011;4282;49.986;7.938;2022-12-07T03:34:52;9.17;;;6.40;;
8490;SDS011;4282;49.986;7.938;2022-12-07T03:37:26;10.47;;;6.30;;
8490;SDS011;4282;49.986;7.938;2022-12-07T03:39:59;10.40;;;6.03;;
8490;SDS011;4282;49.986;7.938;2022-12-07T03:42:31;9.07;;;6.00;;
8490;SDS011;4282;49.986;7.938;2022-12-07T03:45:03;9.63;;;6.27;;
8490;SDS011;4282;49.986;7.938;2022-12-07T03:47:33;9.30;;;5.87;;
8490;SDS011;4282;49.986;7.938;2022-12-07T03:50:06;9.73;;;6.30;;
8490;SDS011;4282;49.986;7.938;2022-12-07T03:52:36;9.27;;;6.30;;
8490;SDS011;4282;49.986;7.938;2022-12-07T03:55:08;10.10;;;6.00;;
8490;SDS011;4282;49.986;7.938;2022-12-07T03:57:39;9.63;;;6.50;;
8490;SDS011;4282;49.986;7.938;2022-12-07T04:00:12;8.90;;;5.97;;
8490;SDS011;4282;49.986;7.938;2022-12-07T04:02:41;9.70;;;6.77;;
8490;SDS011;4282;49.986;7.938;2022-12-07T04:05:10;10.63;;;6.63;;
8490;SDS011;4282;49.986;7.938;2022-12-07T04:07:39;10.53;;;7.10;;
8490;SDS011;4282;49.986;7.938;2022-12-07T04:10:09;11.27;;;7.17;;
8490;SDS011;4282;49.986;7.938;2022-12-07T04:12:38;10.67;;;6.83;;
8490;SDS011;4282;49.986;7.938;2022-12-07T04:15:07;12.77;;;7.50;;
8490;SDS011;4282;49.986;7.938;2022-12-07T04:17:38;9.53;;;6.37;;
8490;SDS011;4282;49.986;7.938;2022-12-07T04:20:07;8.23;;;6.50;;
8490;SDS011;4282;49.986;7.938;2022-12-07T04:22:37;9.90;;;5.80;;
8490;SDS011;4282;49.986;7.938;2022-12-07T04:25:05;10.70;;;6.40;;
8490;SDS011;4282;49.986;7.938;2022-12-07T04:27:34;9.23;;;6.27;;
8490;SDS011;4282;49.986;7.938;2022-12-07T04:30:03;8.77;;;6.27;;
8490;SDS011;4282;49.986;7.938;2022-12-07T04:32:33;11.33;;;6.67;;
8490;SDS011;4282;49.986;7.938;2022-12-07T04:35:04;11.00;;;6.70;;
8490;SDS011;4282;49.986;7.938;2022-12-07T04:37:33;10.73;;;7.40;;
8490;SDS011;4282;49.986;7.938;2022-12-07T04:40:07;10.53;;;6.20;;
8490;SDS011;4282;49.986;7.938;2022-12-07T04:42:36;10.00;;;6.30;;
8490;SDS011;4282;49.986;7.938;2022-12-07T04:45:05;8.27;;;6.33;;
8490;SDS011;4282;49.986;7.938;2022-12-07T04:47:35;8.63;;;5.37;;
8490;SDS011;4282;49.986;7.938;2022-12-07T04:50:07;10.13;;;6.47;;
8490;SDS011;4282;49.986;7.938;2022-12-07T04:52:37;10.93;;;6.40;;
8490;SDS011;4282;49.986;7.938;2022-12-07T04:55:05;11.63;;;6.60;;
8490;SDS011;4282;49.986;7.938;2022-12-07T04:57:34;10.63;;;6.60;;
8490;SDS011;4282;49.986;7.938;2022-12-07T05:00:03;8.23;;;5.70;;
8490;SDS011;4282;49.986;7.938;2022-12-07T05:02:32;8.63;;;6.20;;
8490;SDS011;4282;49.986;7.938;2022-12-07T05:05:00;8.33;;;6.30;;
8490;SDS011;4282;49.986;7.938;2022-12-07T05:07:31;8.97;;;6.23;;
8490;SDS011;4282;49.986;7.938;2022-12-07T05:10:00;10.47;;;7.40;;
8490;SDS011;4282;49.986;7.938;2022-12-07T05:12:28;9.37;;;6.53;;
8490;SDS011;4282;49.986;7.938;2022-12-07T05:14:57;10.03;;;6.97;;
8490;SDS011;4282;49.986;7.938;2022-12-07T05:17:25;8.30;;;6.00;;
8490;SDS011;4282;49.986;7.938;2022-12-07T05:19:53;9.87;;;6.27;;
8490;SDS011;4282;49.986;7.938;2022-12-07T05:22:22;10.63;;;7.00;;
8490;SDS011;4282;49.986;7.938;2022-12-07T05:24:55;10.67;;;7.20;;
8490;SDS011;4282;49.986;7.938;2022-12-07T05:27:24;11.27;;;7.20;;
8490;SDS011;4282;49.986;7.938;2022-12-07T05:29:52;10.27;;;7.00;;
8490;SDS011;4282;49.986;7.938;2022-12-07T05:32:20;10.30;;;6.90;;
8490;SDS011;4282;49.986;7.938;2022-12-07T05:34:49;9.60;;;6.97;;
8490;SDS011;4282;49.986;7.938;2022-12-07T05:37:19;11.13;;;7.20;;
8490;SDS011;4282;49.986;7.938;2022-12-07T05:39:48;11.07;;;6.77;;
8490;SDS011;4282;49.986;7.938;2022-12-07T05:42:19;8.20;;;6.60;;
8490;SDS011;4282;49.986;7.938;2022-12-07T05:44:47;11.17;;;7.00;;
8490;SDS011;4282;49.986;7.938;2022-12-07T05:47:15;11.10;;;6.60;;
8490;SDS011;4282;49.986;7.938;2022-12-07T05:49:44;9.50;;;6.93;;
8490;SDS011;4282;49.986;7.938;2022-12-07T05:52:12;8.10;;;6.47;;
8490;SDS011;4282;49.986;7.938;2022-12-07T05:54:41;11.30;;;7.07;;
8490;SDS011;4282;49.986;7.938;2022-12-07T05:57:09;9.97;;;6.83;;
8490;SDS011;4282;49.986;7.938;2022-12-07T05:59:40;12.43;;;7.40;;
8490;SDS011;4282;49.986;7.938;2022-12-07T06:02:07;10.87;;;7.73;;
8490;SDS011;4282;49.986;7.938;2022-12-07T06:04:38;9.17;;;6.20;;
8490;SDS011;4282;49.986;7.938;2022-12-07T06:07:07;10.43;;;6.77;;
8490;SDS011;4282;49.986;7.938;2022-12-07T06:09:36;9.93;;;6.83;;
8490;SDS011;4282;49.986;7.938;2022-12-07T06:12:05;13.30;;;8.10;;
8490;SDS011;4282;49.986;7.938;2022-12-07T06:14:49;10.40;;;7.17;;
8490;SDS011;4282;49.986;7.938;2022-12-07T06:17:17;11.00;;;7.77;;
8490;SDS011;4282;49.986;7.938;2022-12-07T06:19:46;11.73;;;7.27;;
8490;SDS011;4282;49.986;7.938;2022-12-07T06:22:14;12.40;;;7.63;;
8490;SDS011;4282;49.986;7.938;2022-12-07T06:24:43;11.07;;;7.03;;
8490;SDS011;4282;49.986;7.938;2022-12-07T06:27:11;10.47;;;7.30;;
8490;SDS011;4282;49.986;7.938;2022-12-07T06:29:40;12.80;;;7.83;;
8490;SDS011;4282;49.986;7.938;2022-12-07T06:32:11;14.87;;;7.97;;
8490;SDS011;4282;49.986;7.938;2022-12-07T06:34:39;11.90;;;7.53;;
8490;SDS011;4282;49.986;7.938;2022-12-07T06:37:08;11.00;;;6.90;;
8490;SDS011;4282;49.986;7.938;2022-12-07T06:39:36;11.73;;;8.27;;
8490;SDS011;4282;49.986;7.938;2022-12-07T06:42:04;11.83;;;6.97;;
8490;SDS011;4282;49.986;7.938;2022-12-07T06:44:33;12.80;;;7.77;;
8490;SDS011;4282;49.986;7.938;2022-12-07T06:47:01;13.07;;;7.70;;
8490;SDS011;4282;49.986;7.938;2022-12-07T06:49:33;11.10;;;7.07;;
8490;SDS011;4282;49.986;7.938;2022-12-07T06:52:01;10.47;;;7.40;;
8490;SDS011;4282;49.986;7.938;2022-12-07T06:54:30;10.23;;;7.63;;
8490;SDS011;4282;49.986;7.938;2022-12-07T06:56:58;11.73;;;7.60;;
8490;SDS011;4282;49.986;7.938;2022-12-07T06:59:26;10.43;;;7.47;;
8490;SDS011;4282;49.986;7.938;2022-12-07T07:01:55;12.03;;;7.40;;
8490;SDS011;4282;49.986;7.938;2022-12-07T07:04:23;11.13;;;7.30;;
8490;SDS011;4282;49.986;7.938;2022-12-07T07:06:54;11.67;;;7.83;;
8490;SDS011;4282;49.986;7.938;2022-12-07T07:09:22;11.97;;;8.50;;
8490;SDS011;4282;49.986;7.938;2022-12-07T07:11:51;14.00;;;8.00;;
8490;SDS011;4282;49.986;7.938;2022-12-07T07:14:19;14.13;;;7.90;;
8490;SDS011;4282;49.986;7.938;2022-12-07T07:16:47;13.83;;;8.17;;
8490;SDS011;4282;49.986;7.938;2022-12-07T07:19:16;14.37;;;8.00;;
8490;SDS011;4282;49.986;7.938;2022-12-07T07:21:44;12.40;;;7.50;;
8490;SDS011;4282;49.986;7.938;2022-12-07T07:24:15;13.13;;;8.13;;
8490;SDS011;4282;49.986;7.938;2022-12-07T07:26:44;14.03;;;8.40;;
8490;SDS011;4282;49.986;7.938;2022-12-07T07:29:12;12.50;;;7.93;;
8490;SDS011;4282;49.986;7.938;2022-12-07T07:31:40;12.50;;;8.00;;
8490;SDS011;4282;49.986;7.938;2022-12-07T07:34:09;13.17;;;8.10;;
8490;SDS011;4282;49.986;7.938;2022-12-07T07:36:37;11.20;;;7.00;;
8490;SDS011;4282;49.986;7.938;2022-12-07T07:39:05;12.67;;;8.03;;
8490;SDS011;4282;49.986;7.938;2022-12-07T07:41:36;11.97;;;7.50;;
8490;SDS011;4282;49.986;7.938;2022-12-07T07:44:05;12.37;;;7.83;;
8490;SDS011;4282;49.986;7.938;2022-12-07T07:46:33;12.37;;;7.87;;
8490;SDS011;4282;49.986;7.938;2022-12-07T07:49:01;12.80;;;8.03;;
8490;SDS011;4282;49.986;7.938;2022-12-07T07:51:30;12.43;;;8.50;;
8490;SDS011;4282;49.986;7.938;2022-12-07T07:53:58;12.70;;;8.67;;
8490;SDS011;4282;49.986;7.938;2022-12-07T07:56:26;12.63;;;8.43;;
8490;SDS011;4282;49.986;7.938;2022-12-07T07:58:57;11.33;;;8.70;;
8490;SDS011;4282;49.986;7.938;2022-12-07T08:01:26;13.33;;;7.93;;
8490;SDS011;4282;49.986;7.938;2022-12-07T08:03:54;15.97;;;8.70;;
8490;SDS011;4282;49.986;7.938;2022-12-07T08:06:22;12.33;;;8.03;;
8490;SDS011;4282;49.986;7.938;2022-12-07T08:08:51;13.80;;;8.13;;
8490;SDS011;4282;49.986;7.938;2022-12-07T08:11:20;12.33;;;8.17;;
8490;SDS011;4282;49.986;7.938;2022-12-07T08:13:48;14.90;;;9.67;;
8490;SDS011;4282;49.986;7.938;2022-12-07T08:16:19;13.47;;;10.43;;
8490;SDS011;4282;49.986;7.938;2022-12-07T08:18:47;15.80;;;9.47;;
8490;SDS011;4282;49.986;7.938;2022-12-07T08:21:16;13.80;;;9.50;;
8490;SDS011;4282;49.986;7.938;2022-12-07T08:23:44;13.03;;;8.47;;
8490;SDS011;4282;49.986;7.938;2022-12-07T08:26:13;11.60;;;7.63;;
8490;SDS011;4282;49.986;7.938;2022-12-07T08:28:42;11.77;;;7.73;;
8490;SDS011;4282;49.986;7.938;2022-12-07T08:31:12;13.97;;;7.67;;
8490;SDS011;4282;49.986;7.938;2022-12-07T08:33:44;13.70;;;8.07;;
8490;SDS011;4282;49.986;7.938;2022-12-07T08:36:13;10.77;;;7.27;;
8490;SDS011;4282;49.986;7.938;2022-12-07T08:38:42;11.07;;;6.70;;
8490;SDS011;4282;49.986;7.938;2022-12-07T08:41:10;9.33;;;6.60;;
8490;SDS011;4282;49.986;7.938;2022-12-07T08:43:38;12.67;;;8.20;;
8490;SDS011;4282;49.986;7.938;2022-12-07T08:46:08;14.43;;;6.87;;
8490;SDS011;4282;49.986;7.938;2022-12-07T08:48:38;11.50;;;6.97;;
8490;SDS011;4282;49.986;7.938;2022-12-07T08:51:11;9.97;;;6.20;;
8490;SDS011;4282;49.986;7.938;2022-12-07T08:53:40;9.10;;;5.87;;
8490;SDS011;4282;49.986;7.938;2022-12-07T08:56:09;10.03;;;6.63;;
8490;SDS011;4282;49.986;7.938;2022-12-07T08:58:37;10.70;;;5.47;;
8490;SDS011;4282;49.986;7.938;2022-12-07T09:01:06;7.73;;;4.97;;
8490;SDS011;4282;49.986;7.938;2022-12-07T09:03:35;6.40;;;4.40;;
8490;SDS011;4282;49.986;7.938;2022-12-07T09:06:03;7.70;;;4.00;;
8490;SDS011;4282;49.986;7.938;2022-12-07T09:08:36;7.37;;;4.40;;
8490;SDS011;4282;49.986;7.938;2022-12-07T09:11:10;7.03;;;4.70;;
8490;SDS011;4282;49.986;7.938;2022-12-07T09:13:38;7.70;;;4.57;;
8490;SDS011;4282;49.986;7.938;2022-12-07T09:16:06;5.77;;;4.10;;
8490;SDS011;4282;49.986;7.938;2022-12-07T09:18:35;5.37;;;3.50;;
8490;SDS011;4282;49.986;7.938;2022-12-07T09:21:03;5.33;;;3.17;;
8490;SDS011;4282;49.986;7.938;2022-12-07T09:27:14;4.13;;;3.20;;
8490;SDS011;4282;49.986;7.938;2022-12-07T09:29:43;8.27;;;3.40;;
8490;SDS011;4282;49.986;7.938;2022-12-07T09:32:12;3.27;;;2.27;;
8490;SDS011;4282;49.986;7.938;2022-12-07T09:34:40;6.27;;;2.63;;
8490;SDS011;4282;49.986;7.938;2022-12-07T09:37:09;4.53;;;2.60;;
8490;SDS011;4282;49.986;7.938;2022-12-07T09:39:40;5.20;;;2.63;;
8490;SDS011;4282;49.986;7.938;2022-12-07T09:42:08;4.13;;;2.60;;
8490;SDS011;4282;49.986;7.938;2022-12-07T09:44:46;10.67;;;5.63;;
8490;SDS011;4282;49.986;7.938;2022-12-07T09:47:14;10.70;;;4.80;;
8490;SDS011;4282;49.986;7.938;2022-12-07T09:49:42;10.30;;;4.90;;
8490;SDS011;4282;49.986;7.938;2022-12-07T09:52:17;4.13;;;2.73;;
8490;SDS011;4282;49.986;7.938;2022-12-07T09:54:50;3.97;;;2.60;;
8490;SDS011;4282;49.986;7.938;2022-12-07T09:57:20;5.50;;;2.53;;
8490;SDS011;4282;49.986;7.938;2022-12-07T09:59:53;3.83;;;2.40;;
8490;SDS011;4282;49.986;7.938;2022-12-07T10:02:27;4.13;;;2.00;;
8490;SDS011;4282;49.986;7.938;2022-12-07T10:05:03;2.63;;;1.80;;
8490;SDS011;4282;49.986;7.938;2022-12-07T10:07:33;4.20;;;2.27;;
8490;SDS011;4282;49.986;7.938;2022-12-07T10:10:06;4.50;;;2.83;;
8490;SDS011;4282;49.986;7.938;2022-12-07T10:12:55;5.23;;;2.63;;
8490;SDS011;4282;49.986;7.938;2022-12-07T10:18:17;3.53;;;2.37;;
8490;SDS011;4282;49.986;7.938;2022-12-07T10:20:47;3.07;;;2.23;;
8490;SDS011;4282;49.986;7.938;2022-12-07T10:23:17;3.70;;;2.60;;
8490;SDS011;4282;49.986;7.938;2022-12-07T10:25:49;3.00;;;1.97;;
8490;SDS011;4282;49.986;7.938;2022-12-07T10:28:20;3.23;;;2.10;;
8490;SDS011;4282;49.986;7.938;2022-12-07T10:30:50;5.57;;;2.67;;
8490;SDS011;4282;49.986;7.938;2022-12-07T10:33:28;2.57;;;1.83;;
8490;SDS011;4282;49.986;7.938;2022-12-07T10:35:58;4.93;;;2.20;;
8490;SDS011;4282;49.986;7.938;2022-12-07T10:38:27;4.23;;;2.30;;
8490;SDS011;4282;49.986;7.938;2022-12-07T10:43:54;2.53;;;1.83;;
8490;SDS011;4282;49.986;7.938;2022-12-07T10:46:49;5.03;;;2.50;;
8490;SDS011;4282;49.986;7.938;2022-12-07T10:53:16;3.10;;;1.80;;
8490;SDS011;4282;49.986;7.938;2022-12-07T10:56:03;3.47;;;2.07;;
8490;SDS011;4282;49.986;7.938;2022-12-07T10:58:48;3.33;;;2.37;;
8490;SDS011;4282;49.986;7.938;2022-12-07T11:01:23;3.67;;;2.40;;
8490;SDS011;4282;49.986;7.938;2022-12-07T11:06:45;3.87;;;1.80;;
8490;SDS011;4282;49.986;7.938;2022-12-07T11:09:24;3.70;;;1.90;;
8490;SDS011;4282;49.986;7.938;2022-12-07T11:12:03;3.50;;;1.50;;
8490;SDS011;4282;49.986;7.938;2022-12-07T11:14:39;2.43;;;1.60;;
8490;SDS011;4282;49.986;7.938;2022-12-07T11:17:12;6.63;;;1.73;;
8490;SDS011;4282;49.986;7.938;2022-12-07T11:19:49;3.50;;;1.80;;
8490;SDS011;4282;49.986;7.938;2022-12-07T11:22:23;3.33;;;1.73;;
8490;SDS011;4282;49.986;7.938;2022-12-07T11:25:02;5.20;;;1.87;;
8490;SDS011;4282;49.986;7.938;2022-12-07T11:27:43;5.50;;;1.77;;
8490;SDS011;4282;49.986;7.938;2022-12-07T11:30:19;8.50;;;1.77;;
8490;SDS011;4282;49.986;7.938;2022-12-07T11:32:56;2.43;;;1.57;;
8490;SDS011;4282;49.986;7.938;2022-12-07T11:35:33;3.00;;;1.90;;
8490;SDS011;4282;49.986;7.938;2022-12-07T11:38:07;3.63;;;1.50;;
8490;SDS011;4282;49.986;7.938;2022-12-07T11:40:39;5.67;;;1.60;;
8490;SDS011;4282;49.986;7.938;2022-12-07T11:43:11;1.83;;;1.50;;
8490;SDS011;4282;49.986;7.938;2022-12-07T11:45:46;2.23;;;1.43;;
8490;SDS011;4282;49.986;7.938;2022-12-07T11:48:18;2.27;;;1.80;;
8490;SDS011;4282;49.986;7.938;2022-12-07T11:50:51;5.93;;;1.70;;
8490;SDS011;4282;49.986;7.938;2022-12-07T11:53:23;4.73;;;1.87;;
8490;SDS011;4282;49.986;7.938;2022-12-07T11:55:57;3.10;;;1.67;;
8490;SDS011;4282;49.986;7.938;2022-12-07T11:58:35;5.63;;;1.77;;
8490;SDS011;4282;49.986;7.938;2022-12-07T12:01:24;3.70;;;2.00;;
8490;SDS011;4282;49.986;7.938;2022-12-07T12:04:19;2.23;;;1.70;;
8490;SDS011;4282;49.986;7.938;2022-12-07T12:06:58;3.80;;;2.30;;
8490;SDS011;4282;49.986;7.938;2022-12-07T12:09:28;4.33;;;1.80;;
8490;SDS011;4282;49.986;7.938;2022-12-07T12:12:04;2.90;;;1.67;;
8490;SDS011;4282;49.986;7.938;2022-12-07T12:14:50;4.30;;;2.20;;
8490;SDS011;4282;49.986;7.938;2022-12-07T12:17:42;6.47;;;2.53;;
8490;SDS011;4282;49.986;7.938;2022-12-07T12:20:19;3.83;;;1.70;;
8490;SDS011;4282;49.986;7.938;2022-12-07T12:22:52;4.10;;;1.80;;
8490;SDS011;4282;49.986;7.938;2022-12-07T12:25:23;5.33;;;2.10;;
8490;SDS011;4282;49.986;7.938;2022-12-07T12:27:54;3.73;;;1.80;;
8490;SDS011;4282;49.986;7.938;2022-12-07T12:30:26;3.43;;;1.70;;
8490;SDS011;4282;49.986;7.938;2022-12-07T12:33:12;4.30;;;1.80;;
8490;SDS011;4282;49.986;7.938;2022-12-07T12:35:43;2.30;;;1.87;;
8490;SDS011;4282;49.986;7.938;2022-12-07T12:38:28;1.90;;;1.40;;
8490;SDS011;4282;49.986;7.938;2022-12-07T12:40:59;4.10;;;1.87;;
8490;SDS011;4282;49.986;7.938;2022-12-07T12:49:36;1.73;;;1.60;;
8490;SDS011;4282;49.986;7.938;2022-12-07T12:55:29;1.33;;;1.10;;
8490;SDS011;4282;49.986;7.938;2022-12-07T12:58:33;3.07;;;1.40;;
8490;SDS011;4282;49.986;7.938;2022-12-07T13:04:00;3.27;;;1.50;;
8490;SDS011;4282;49.986;7.938;2022-12-07T13:06:35;5.43;;;1.63;;
8490;SDS011;4282;49.986;7.938;2022-12-07T13:09:04;4.33;;;2.00;;
8490;SDS011;4282;49.986;7.938;2022-12-07T13:11:46;4.93;;;2.93;;
8490;SDS011;4282;49.986;7.938;2022-12-07T13:23:14;3.53;;;1.50;;
8490;SDS011;4282;49.986;7.938;2022-12-07T13:28:44;4.37;;;1.70;;
8490;SDS011;4282;49.986;7.938;2022-12-07T13:31:25;2.83;;;1.73;;
8490;SDS011;4282;49.986;7.938;2022-12-07T13:34:01;1.40;;;1.27;;
8490;SDS011;4282;49.986;7.938;2022-12-07T13:36:30;2.77;;;1.43;;
8490;SDS011;4282;49.986;7.938;2022-12-07T13:39:16;2.87;;;1.33;;
8490;SDS011;4282;49.986;7.938;2022-12-07T13:41:49;3.27;;;1.40;;
8490;SDS011;4282;49.986;7.938;2022-12-07T13:44:19;4.23;;;1.63;;
8490;SDS011;4282;49.986;7.938;2022-12-07T13:46:52;4.77;;;1.80;;
8490;SDS011;4282;49.986;7.938;2022-12-07T13:49:26;5.33;;;1.70;;
8490;SDS011;4282;49.986;7.938;2022-12-07T13:52:06;4.27;;;1.40;;
8490;SDS011;4282;49.986;7.938;2022-12-07T13:54:48;2.50;;;1.80;;
8490;SDS011;4282;49.986;7.938;2022-12-07T13:57:18;3.37;;;1.97;;
8490;SDS011;4282;49.986;7.938;2022-12-07T13:59:46;4.10;;;1.70;;
8490;SDS011;4282;49.986;7.938;2022-12-07T14:02:19;5.33;;;2.70;;
8490;SDS011;4282;49.986;7.938;2022-12-07T14:04:49;2.50;;;1.73;;
8490;SDS011;4282;49.986;7.938;2022-12-07T14:07:19;2.40;;;1.40;;
8490;SDS011;4282;49.986;7.938;2022-12-07T14:09:59;2.20;;;1.30;;
8490;SDS011;4282;49.986;7.938;2022-12-07T14:12:28;5.00;;;2.13;;
8490;SDS011;4282;49.986;7.938;2022-12-07T14:14:57;3.73;;;1.73;;
8490;SDS011;4282;49.986;7.938;2022-12-07T14:17:27;2.17;;;1.33;;
8490;SDS011;4282;49.986;7.938;2022-12-07T14:19:56;3.83;;;1.57;;
8490;SDS011;4282;49.986;7.938;2022-12-07T14:22:29;3.03;;;1.60;;
8490;SDS011;4282;49.986;7.938;2022-12-07T14:25:13;4.20;;;1.80;;
8490;SDS011;4282;49.986;7.938;2022-12-07T14:27:48;4.57;;;1.90;;
8490;SDS011;4282;49.986;7.938;2022-12-07T14:30:21;3.57;;;1.97;;
8490;SDS011;4282;49.986;7.938;2022-12-07T14:32:52;2.67;;;1.87;;
8490;SDS011;4282;49.986;7.938;2022-12-07T14:35:22;3.37;;;1.40;;
8490;SDS011;4282;49.986;7.938;2022-12-07T14:37:51;2.47;;;1.30;;
8490;SDS011;4282;49.986;7.938;2022-12-07T14:40:23;3.27;;;1.57;;
8490;SDS011;4282;49.986;7.938;2022-12-07T14:42:57;2.37;;;1.47;;
8490;SDS011;4282;49.986;7.938;2022-12-07T14:45:44;3.67;;;1.50;;
8490;SDS011;4282;49.986;7.938;2022-12-07T14:48:21;2.57;;;1.60;;
8490;SDS011;4282;49.986;7.938;2022-12-07T14:50:49;3.47;;;1.67;;
8490;SDS011;4282;49.986;7.938;2022-12-07T14:53:21;5.73;;;1.83;;
8490;SDS011;4282;49.986;7.938;2022-12-07T14:55:57;2.83;;;1.80;;
8490;SDS011;4282;49.986;7.938;2022-12-07T14:58:26;3.67;;;2.13;;
8490;SDS011;4282;49.986;7.938;2022-12-07T15:00:57;3.73;;;1.90;;
8490;SDS011;4282;49.986;7.938;2022-12-07T15:03:25;4.63;;;2.63;;
8490;SDS011;4282;49.986;7.938;2022-12-07T15:05:54;3.63;;;2.17;;
8490;SDS011;4282;49.986;7.938;2022-12-07T15:08:23;4.13;;;1.80;;
8490;SDS011;4282;49.986;7.938;2022-12-07T15:10:51;4.13;;;2.20;;
8490;SDS011;4282;49.986;7.938;2022-12-07T15:13:22;6.87;;;2.57;;
8490;SDS011;4282;49.986;7.938;2022-12-07T15:16:04;3.93;;;2.63;;
8490;SDS011;4282;49.986;7.938;2022-12-07T15:18:33;3.90;;;2.80;;
8490;SDS011;4282;49.986;7.938;2022-12-07T15:21:01;3.03;;;2.20;;
8490;SDS011;4282;49.986;7.938;2022-12-07T15:23:30;5.27;;;1.70;;
8490;SDS011;4282;49.986;7.938;2022-12-07T15:25:58;2.57;;;2.20;;
8490;SDS011;4282;49.986;7.938;2022-12-07T15:28:29;4.43;;;1.60;;
8490;SDS011;4282;49.986;7.938;2022-12-07T15:30:58;2.90;;;1.87;;
8490;SDS011;4282;49.986;7.938;2022-12-07T15:33:26;6.00;;;2.23;;
8490;SDS011;4282;49.986;7.938;2022-12-07T15:35:54;4.50;;;2.70;;
8490;SDS011;4282;49.986;7.938;2022-12-07T15:38:23;4.77;;;2.83;;
8490;SDS011;4282;49.986;7.938;2022-12-07T15:40:52;4.53;;;3.57;;
8490;SDS011;4282;49.986;7.938;2022-12-07T15:43:20;4.23;;;3.40;;
8490;SDS011;4282;49.986;7.938;2022-12-07T16:08:50;8.23;;;5.23;;
8490;SDS011;4282;49.986;7.938;2022-12-07T16:11:18;8.63;;;4.83;;
8490;SDS011;4282;49.986;7.938;2022-12-07T16:13:47;10.10;;;5.57;;
8490;SDS011;4282;49.986;7.938;2022-12-07T16:16:16;8.57;;;4.70;;
8490;SDS011;4282;49.986;7.938;2022-12-07T16:18:47;6.27;;;3.93;;
8490;SDS011;4282;49.986;7.938;2022-12-07T16:21:16;7.10;;;4.00;;
8490;SDS011;4282;49.986;7.938;2022-12-07T16:23:45;5.50;;;3.27;;
8490;SDS011;4282;49.986;7.938;2022-12-07T16:26:17;4.47;;;3.77;;
8490;SDS011;4282;49.986;7.938;2022-12-07T16:28:48;5.47;;;3.70;;
8490;SDS011;4282;49.986;7.938;2022-12-07T16:31:17;6.13;;;5.50;;
8490;SDS011;4282;49.986;7.938;2022-12-07T16:33:47;8.70;;;6.73;;
8490;SDS011;4282;49.986;7.938;2022-12-07T16:36:17;11.70;;;6.97;;
8490;SDS011;4282;49.986;7.938;2022-12-07T16:38:47;11.50;;;7.83;;
8490;SDS011;4282;49.986;7.938;2022-12-07T16:41:18;9.43;;;7.77;;
8490;SDS011;4282;49.986;7.938;2022-12-07T16:43:47;9.10;;;5.47;;